Paiporta, Spain
Current Conditions -  °F | °C
As of 4:30 AM on Sunday 23 Nov 2014 (Local Time) from LEVC Reporting Station
Haze Haze  
Wind Chill: 57°   Ceiling: Unl
Heat Index: 57°   Visibility: 2.5mi
Dew Point: 55°   Wind: 5mph
Humidity: 94%   Direction: 320°NW
Pressure: 30"   Gusts: NA
Location:  39.43°N, 0.42°W
Report Text: LEVC 230330Z 32004KT 4000 BR SCT045 14/13 Q1016 NOSIG
Loading
Personal Weather Stations






























Interactive Weather Map New forecast layout! Learn more

10-Day Weather Forecast

Advertisements
Track Severe Weather on mobile